Terminal Aerodrome Forecast
Issued by NWS

Home | Current Version | Previous Version | Text Only | Print | Product List | Glossary On
Versions: 1 2 3 4 5 6 7 8 9 10 11 12 13 14 15 16 17 18 19 20
000
FTUS43 KAPX 250500
TAFPLN
TAF
KPLN 250520Z 2506/2606 00000KT P6SM SCT250
     FM251500 23009KT P6SM SCT050 BKN150
     FM251800 24009G17KT P6SM SCT050 BKN090
     FM260100 VRB03KT P6SM SCT040 OVC080=

USA.gov is the U.S. government's official web portal to all federal, state and local government web resources and services.